Central, Connecticut
Current Conditions -  °F | °C
As of 10:53 PM on Monday 20 Oct 2014 (Local Time) from KHFD Reporting Station
Clear Clear  
Wind Chill:   Ceiling: Unl
Heat Index:   Visibility: 10mi
Dew Point:   Wind: 5mph
Humidity: 80%   Direction: 190°S
Pressure: 29.99"   Gusts: NA
Location:  41.7665°N, 72.6731°W
Report Text: KHFD 210253Z 19004KT 10SM CLR 09/06 A2999 RMK AO2 SLP154 T00890056 55001 $
Loading
Personal Weather Stations






























Interactive Weather Map
Tropical Storm Tracking
New forecast layout! Learn more

10-Day Weather Forecast

Advertisements
Track Severe Weather on mobile